»·PEaware :: N80HC KSNA-KSBA

N80HC :: KSNA-KSBA

FLIGHT INFORMATION

Flight Status: Arrived
Operator: Privately registered:
United States
More flights under this callsign
Pilot: Saso K. (7898)
Aircraft: BEECH AIRCRAFT BARON
(BE58)
More flights by this aircraft type
Origin: KSNA John Wayne-Orange Co
United States
Destination: KSBA Santa Barbara Mun
United States
More flights between these airports :: More routes between these airports
Route: +SLI V23 LAX V299 VTU VTU282R KWANG
File this flight plan on PilotEdge
Remarks: TEC ROUTE CSTN21
Altitude:
(Current/Filed)
6,000ft
Speed:
(Current/Filed)
200kts
Departed: 10-Apr-17 03:49 PM
Arrived: 10-Apr-17 04:30 PM
Distance/Time
Traveled:
108nm/0:41
Distance/Time
To Go:
Arrived

Flight Plot

Page will automatically refresh every two minutes.


Map Options




Map Legend


Flown Route
Filed Route
Departure Airport
Arrival Airport
Navaid (VOR, NDB)
Fix

Horizontal Profiles

Position Reports

Time Latitude Longitude Heading Altitude Ground
Speed
10-Apr-17 15:30 33.671102 -117.867621 17 49ft 0kts
10-Apr-17 15:31 33.671102 -117.867621 17 49ft 0kts
10-Apr-17 15:32 33.671102 -117.867621 17 49ft 0kts
10-Apr-17 15:33 33.671102 -117.867621 17 49ft 0kts
10-Apr-17 15:34 33.671102 -117.867621 17 49ft 0kts
10-Apr-17 15:35 33.671102 -117.867621 17 49ft 0kts
10-Apr-17 15:36 33.671102 -117.867621 17 49ft 0kts
10-Apr-17 15:37 33.671102 -117.867621 17 49ft 0kts
10-Apr-17 15:38 33.671102 -117.867621 17 49ft 0kts
10-Apr-17 15:39 33.671403 -117.867767 300 49ft 4kts
10-Apr-17 15:40 33.671454 -117.867870 299 49ft 0kts
10-Apr-17 15:41 33.671453 -117.867870 299 49ft 0kts
10-Apr-17 15:42 33.671453 -117.867870 299 49ft 0kts
10-Apr-17 15:43 33.671453 -117.867870 299 49ft 0kts
10-Apr-17 15:44 33.671912 -117.868217 16 49ft 11kts
10-Apr-17 15:45 33.675045 -117.866465 28 45ft 19kts
10-Apr-17 15:46 33.679829 -117.863479 9 39ft 4kts
10-Apr-17 15:47 33.679971 -117.863639 291 39ft 0kts
10-Apr-17 15:48 33.679971 -117.863639 291 39ft 0kts
10-Apr-17 15:49 33.680115 -117.863970 301 39ft 7kts
10-Apr-17 15:50 33.676415 -117.868368 209 47ft 96kts
10-Apr-17 15:51 33.651772 -117.892986 231 1537ft 128kts
10-Apr-17 15:52 33.625726 -117.928529 230 2076ft 161kts
10-Apr-17 15:53 33.596683 -117.972451 231 2033ft 174kts
10-Apr-17 15:54 33.575458 -118.019818 295 2290ft 161kts
10-Apr-17 15:55 33.601443 -118.053588 311 3630ft 144kts
10-Apr-17 15:56 33.628349 -118.084948 313 5098ft 129kts
10-Apr-17 15:57 33.656059 -118.116374 314 6035ft 159kts
10-Apr-17 15:58 33.692643 -118.157818 315 6030ft 193kts
10-Apr-17 15:59 33.732065 -118.202540 315 6027ft 198kts
10-Apr-17 16:00 33.771801 -118.247728 315 6027ft 198kts
10-Apr-17 16:01 33.811581 -118.293048 315 6028ft 198kts
10-Apr-17 16:02 33.851350 -118.338402 315 6032ft 197kts
10-Apr-17 16:03 33.890888 -118.383576 315 6008ft 197kts
10-Apr-17 16:04 33.930630 -118.429144 312 6010ft 197kts
10-Apr-17 16:05 33.951508 -118.489263 290 6013ft 195kts
10-Apr-17 16:06 33.970950 -118.550272 290 6016ft 196kts
10-Apr-17 16:07 33.990440 -118.611505 290 6018ft 196kts
10-Apr-17 16:08 34.008210 -118.667439 289 6022ft 196kts
10-Apr-17 16:09 34.026748 -118.725871 290 6026ft 196kts
10-Apr-17 16:10 34.045161 -118.787537 287 6031ft 195kts
10-Apr-17 16:11 34.061823 -118.849698 287 6034ft 195kts
10-Apr-17 16:12 34.078452 -118.911896 287 6036ft 196kts
10-Apr-17 16:13 34.095056 -118.974155 287 6034ft 196kts
10-Apr-17 16:14 34.108637 -119.025191 287 6015ft 196kts
10-Apr-17 16:15 34.130219 -119.085459 295 6010ft 196kts
10-Apr-17 16:16 34.154805 -119.144068 296 6005ft 195kts
10-Apr-17 16:17 34.179269 -119.202466 296 6002ft 195kts
10-Apr-17 16:18 34.203652 -119.260767 296 6000ft 194kts
10-Apr-17 16:19 34.227869 -119.318779 296 5999ft 194kts
10-Apr-17 16:20 34.252124 -119.376994 296 5999ft 194kts
10-Apr-17 16:21 34.276337 -119.435183 296 6000ft 194kts
10-Apr-17 16:22 34.300597 -119.493597 295 6008ft 194kts
10-Apr-17 16:23 34.322563 -119.551522 292 5702ft 193kts
10-Apr-17 16:24 34.344075 -119.612275 292 4578ft 190kts
10-Apr-17 16:25 34.364788 -119.669747 292 3665ft 184kts
10-Apr-17 16:26 34.385485 -119.726806 292 2462ft 183kts
10-Apr-17 16:27 34.405160 -119.780455 292 1661ft 164kts
10-Apr-17 16:28 34.431354 -119.814826 0 1440ft 145kts
10-Apr-17 16:29 34.455468 -119.826984 237 619ft 117kts
10-Apr-17 16:30 34.429633 -119.839921 164 21ft 95kts
10-Apr-17 16:31 34.419866 -119.836456 70 13ft 0kts
10-Apr-17 16:32 34.419866 -119.836456 70 13ft 0kts
10-Apr-17 16:33 34.419920 -119.836243 72 12ft 8kts
10-Apr-17 16:34 34.421516 -119.835863 359 11ft 0kts

Navigation Log

Ident Type
1. KSNA Airport
2. SLI Navaid
3. POPPR Fix
4. HERMO Fix
5. LAX Navaid
6. SADDE Fix
7. VTU Navaid
8. KWANG Fix
9. KSBA Airport